sensor_id;sensor_type;location;lat;lon;timestamp;temperature;humidity
21540;DHT22;10931;52.164;5.518;2022-10-16T00:50:11;19.50;70.00
21540;DHT22;10931;52.164;5.518;2022-10-16T10:55:52;19.10;69.90
21540;DHT22;10931;52.164;5.518;2022-10-16T11:13:07;19.10;69.80
21540;DHT22;10931;52.164;5.518;2022-10-16T11:16:12;19.10;69.90
21540;DHT22;10931;52.164;5.518;2022-10-16T11:28:31;19.20;69.90
21540;DHT22;10931;52.164;5.518;2022-10-16T12:09:52;19.30;69.90
21540;DHT22;10931;52.164;5.518;2022-10-16T12:16:30;19.40;70.10
21540;DHT22;10931;52.164;5.518;2022-10-16T12:22:48;19.50;70.20
21540;DHT22;10931;52.164;5.518;2022-10-16T12:25:56;19.50;70.20
21540;DHT22;10931;52.164;5.518;2022-10-16T12:28:36;19.50;70.30
21540;DHT22;10931;52.164;5.518;2022-10-16T12:31:15;19.50;70.30
21540;DHT22;10931;52.164;5.518;2022-10-16T12:34:19;19.60;70.40
21540;DHT22;10931;52.164;5.518;2022-10-16T12:36:49;19.60;70.50
21540;DHT22;10931;52.164;5.518;2022-10-16T12:39:36;19.60;70.50
21540;DHT22;10931;52.164;5.518;2022-10-16T12:44:59;19.70;70.60
21540;DHT22;10931;52.164;5.518;2022-10-16T12:53:21;19.70;70.70
21540;DHT22;10931;52.164;5.518;2022-10-16T13:04:43;19.80;70.80
21540;DHT22;10931;52.164;5.518;2022-10-16T13:10:47;19.90;70.90
21540;DHT22;10931;52.164;5.518;2022-10-16T13:19:51;20.00;71.00
21540;DHT22;10931;52.164;5.518;2022-10-16T13:26:06;20.00;71.00
21540;DHT22;10931;52.164;5.518;2022-10-16T13:29:05;20.10;71.00
21540;DHT22;10931;52.164;5.518;2022-10-16T13:31:38;20.10;71.00
21540;DHT22;10931;52.164;5.518;2022-10-16T13:34:46;20.10;71.10
21540;DHT22;10931;52.164;5.518;2022-10-16T13:37:25;20.10;71.00
21540;DHT22;10931;52.164;5.518;2022-10-16T13:40:20;20.20;71.10
21540;DHT22;10931;52.164;5.518;2022-10-16T13:42:53;20.20;71.00
21540;DHT22;10931;52.164;5.518;2022-10-16T13:45:36;20.20;71.00
21540;DHT22;10931;52.164;5.518;2022-10-16T13:48:03;20.20;71.00
21540;DHT22;10931;52.164;5.518;2022-10-16T13:50:38;20.20;71.00
21540;DHT22;10931;52.164;5.518;2022-10-16T13:53:15;20.20;71.00
21540;DHT22;10931;52.164;5.518;2022-10-16T13:55:50;20.20;71.00
21540;DHT22;10931;52.164;5.518;2022-10-16T14:14:23;20.40;71.10
21540;DHT22;10931;52.164;5.518;2022-10-16T14:40:46;20.50;71.00
21540;DHT22;10931;52.164;5.518;2022-10-16T14:43:43;20.50;71.10
21540;DHT22;10931;52.164;5.518;2022-10-16T14:46:38;20.50;71.00
21540;DHT22;10931;52.164;5.518;2022-10-16T14:52:39;20.60;71.00
21540;DHT22;10931;52.164;5.518;2022-10-16T14:55:37;20.60;71.00
21540;DHT22;10931;52.164;5.518;2022-10-16T14:58:24;20.60;70.90
21540;DHT22;10931;52.164;5.518;2022-10-16T15:01:31;20.60;70.90
21540;DHT22;10931;52.164;5.518;2022-10-16T15:04:06;20.60;70.90
21540;DHT22;10931;52.164;5.518;2022-10-16T15:13:31;20.60;70.80
21540;DHT22;10931;52.164;5.518;2022-10-16T15:16:27;20.60;70.80
21540;DHT22;10931;52.164;5.518;2022-10-16T15:19:00;20.60;70.70
21540;DHT22;10931;52.164;5.518;2022-10-16T15:21:32;20.60;70.70
21540;DHT22;10931;52.164;5.518;2022-10-16T15:24:17;20.60;70.70
21540;DHT22;10931;52.164;5.518;2022-10-16T15:27:07;20.60;70.70
21540;DHT22;10931;52.164;5.518;2022-10-16T15:33:20;20.60;70.60
21540;DHT22;10931;52.164;5.518;2022-10-16T15:36:02;20.70;70.60
21540;DHT22;10931;52.164;5.518;2022-10-16T15:38:38;20.60;70.60
21540;DHT22;10931;52.164;5.518;2022-10-16T15:44:24;20.60;70.60
21540;DHT22;10931;52.164;5.518;2022-10-16T15:47:01;20.60;70.60
21540;DHT22;10931;52.164;5.518;2022-10-16T15:49:46;20.70;70.60
21540;DHT22;10931;52.164;5.518;2022-10-16T15:55:13;20.70;70.60
21540;DHT22;10931;52.164;5.518;2022-10-16T15:57:47;20.70;70.50
21540;DHT22;10931;52.164;5.518;2022-10-16T16:00:35;20.60;70.40
21540;DHT22;10931;52.164;5.518;2022-10-16T16:03:32;20.70;70.50
21540;DHT22;10931;52.164;5.518;2022-10-16T16:06:14;20.70;70.50
21540;DHT22;10931;52.164;5.518;2022-10-16T16:08:48;20.70;70.60
21540;DHT22;10931;52.164;5.518;2022-10-16T16:11:22;20.70;70.60
21540;DHT22;10931;52.164;5.518;2022-10-16T16:13:54;20.60;70.40
21540;DHT22;10931;52.164;5.518;2022-10-16T16:16:43;20.60;70.40
21540;DHT22;10931;52.164;5.518;2022-10-16T16:19:16;20.60;70.40
21540;DHT22;10931;52.164;5.518;2022-10-16T16:21:56;20.70;70.40
21540;DHT22;10931;52.164;5.518;2022-10-16T16:24:26;20.60;70.40
21540;DHT22;10931;52.164;5.518;2022-10-16T16:27:21;20.70;70.40
21540;DHT22;10931;52.164;5.518;2022-10-16T16:30:18;20.60;70.40
21540;DHT22;10931;52.164;5.518;2022-10-16T16:32:50;20.70;70.40
21540;DHT22;10931;52.164;5.518;2022-10-16T16:35:18;20.60;70.40
21540;DHT22;10931;52.164;5.518;2022-10-16T16:37:50;20.60;70.30
21540;DHT22;10931;52.164;5.518;2022-10-16T16:40:20;20.60;70.40
21540;DHT22;10931;52.164;5.518;2022-10-16T16:42:52;20.60;70.30
21540;DHT22;10931;52.164;5.518;2022-10-16T16:45:18;20.60;70.30
21540;DHT22;10931;52.164;5.518;2022-10-16T16:48:03;20.60;70.40
21540;DHT22;10931;52.164;5.518;2022-10-16T16:50:36;20.60;70.30
21540;DHT22;10931;52.164;5.518;2022-10-16T16:53:10;20.60;70.30
21540;DHT22;10931;52.164;5.518;2022-10-16T16:55:40;20.60;70.30
21540;DHT22;10931;52.164;5.518;2022-10-16T16:58:06;20.60;70.30
21540;DHT22;10931;52.164;5.518;2022-10-16T17:00:32;20.60;70.30
21540;DHT22;10931;52.164;5.518;2022-10-16T17:03:00;20.60;70.30
21540;DHT22;10931;52.164;5.518;2022-10-16T17:05:28;20.60;70.30
21540;DHT22;10931;52.164;5.518;2022-10-16T17:08:15;20.60;70.30
21540;DHT22;10931;52.164;5.518;2022-10-16T17:13:53;20.60;70.40
21540;DHT22;10931;52.164;5.518;2022-10-16T17:16:21;20.60;70.30
21540;DHT22;10931;52.164;5.518;2022-10-16T17:18:53;20.60;70.30
21540;DHT22;10931;52.164;5.518;2022-10-16T17:21:38;20.60;70.30
21540;DHT22;10931;52.164;5.518;2022-10-16T17:49:29;20.50;70.30
21540;DHT22;10931;52.164;5.518;2022-10-16T17:52:42;20.60;70.20
21540;DHT22;10931;52.164;5.518;2022-10-16T17:55:46;20.50;70.30
21540;DHT22;10931;52.164;5.518;2022-10-16T17:59:00;20.50;70.30
21540;DHT22;10931;52.164;5.518;2022-10-16T18:09:00;20.50;70.30
21540;DHT22;10931;52.164;5.518;2022-10-16T18:11:45;20.50;70.30
21540;DHT22;10931;52.164;5.518;2022-10-16T18:14:17;20.50;70.30
21540;DHT22;10931;52.164;5.518;2022-10-16T18:16:47;20.50;70.30
21540;DHT22;10931;52.164;5.518;2022-10-16T18:19:26;20.50;70.30
21540;DHT22;10931;52.164;5.518;2022-10-16T18:21:57;20.50;70.40
21540;DHT22;10931;52.164;5.518;2022-10-16T18:24:28;20.50;70.40
21540;DHT22;10931;52.164;5.518;2022-10-16T18:26:59;20.50;70.30
21540;DHT22;10931;52.164;5.518;2022-10-16T18:29:29;20.50;70.40
21540;DHT22;10931;52.164;5.518;2022-10-16T18:32:14;20.50;70.30
21540;DHT22;10931;52.164;5.518;2022-10-16T18:35:00;20.50;70.30
21540;DHT22;10931;52.164;5.518;2022-10-16T18:45:10;20.50;70.30
21540;DHT22;10931;52.164;5.518;2022-10-16T19:05:29;20.40;70.30
21540;DHT22;10931;52.164;5.518;2022-10-16T19:08:35;20.40;70.30
21540;DHT22;10931;52.164;5.518;2022-10-16T19:11:40;20.40;70.30
21540;DHT22;10931;52.164;5.518;2022-10-16T19:28:24;20.40;70.30
21540;DHT22;10931;52.164;5.518;2022-10-16T19:31:42;20.40;70.30
21540;DHT22;10931;52.164;5.518;2022-10-16T19:38:08;20.40;70.30
21540;DHT22;10931;52.164;5.518;2022-10-16T19:41:19;20.40;70.40
21540;DHT22;10931;52.164;5.518;2022-10-16T19:44:23;20.40;70.30
21540;DHT22;10931;52.164;5.518;2022-10-16T19:47:16;20.30;70.30
21540;DHT22;10931;52.164;5.518;2022-10-16T19:53:39;20.30;70.30
21540;DHT22;10931;52.164;5.518;2022-10-16T20:27:28;20.30;70.30
21540;DHT22;10931;52.164;5.518;2022-10-16T20:30:01;20.30;70.30
21540;DHT22;10931;52.164;5.518;2022-10-16T20:32:32;20.30;70.30
21540;DHT22;10931;52.164;5.518;2022-10-16T20:35:00;20.30;70.30
21540;DHT22;10931;52.164;5.518;2022-10-16T20:37:26;20.30;70.30
21540;DHT22;10931;52.164;5.518;2022-10-16T20:46:05;20.30;70.30
21540;DHT22;10931;52.164;5.518;2022-10-16T20:48:43;20.30;70.30
21540;DHT22;10931;52.164;5.518;2022-10-16T20:51:38;20.30;70.30
21540;DHT22;10931;52.164;5.518;2022-10-16T20:54:24;20.30;70.30
21540;DHT22;10931;52.164;5.518;2022-10-16T21:00:42;20.30;70.30
21540;DHT22;10931;52.164;5.518;2022-10-16T21:03:47;20.30;70.30
21540;DHT22;10931;52.164;5.518;2022-10-16T21:09:22;20.20;70.30
21540;DHT22;10931;52.164;5.518;2022-10-16T21:12:12;20.30;70.30
21540;DHT22;10931;52.164;5.518;2022-10-16T21:24:04;20.20;70.20
21540;DHT22;10931;52.164;5.518;2022-10-16T21:26:55;20.20;70.30
21540;DHT22;10931;52.164;5.518;2022-10-16T21:29:26;20.20;70.30
21540;DHT22;10931;52.164;5.518;2022-10-16T21:31:58;20.20;70.30
21540;DHT22;10931;52.164;5.518;2022-10-16T21:34:36;20.20;70.30
21540;DHT22;10931;52.164;5.518;2022-10-16T21:37:23;20.20;70.20
21540;DHT22;10931;52.164;5.518;2022-10-16T21:40:20;20.20;70.30
21540;DHT22;10931;52.164;5.518;2022-10-16T21:43:17;20.20;70.30
21540;DHT22;10931;52.164;5.518;2022-10-16T21:46:14;20.20;70.20
21540;DHT22;10931;52.164;5.518;2022-10-16T21:49:10;20.20;70.30
21540;DHT22;10931;52.164;5.518;2022-10-16T21:51:57;20.20;70.30
21540;DHT22;10931;52.164;5.518;2022-10-16T21:54:23;20.20;70.30
21540;DHT22;10931;52.164;5.518;2022-10-16T21:57:33;20.20;70.30
21540;DHT22;10931;52.164;5.518;2022-10-16T22:00:24;20.20;70.30
21540;DHT22;10931;52.164;5.518;2022-10-16T22:19:19;20.10;70.10
21540;DHT22;10931;52.164;5.518;2022-10-16T22:22:07;20.10;70.20
21540;DHT22;10931;52.164;5.518;2022-10-16T22:24:38;20.10;70.10
21540;DHT22;10931;52.164;5.518;2022-10-16T22:27:11;20.10;70.20
21540;DHT22;10931;52.164;5.518;2022-10-16T22:33:16;20.10;70.20
21540;DHT22;10931;52.164;5.518;2022-10-16T22:36:04;20.10;70.10
21540;DHT22;10931;52.164;5.518;2022-10-16T22:38:42;20.10;71.00
21540;DHT22;10931;52.164;5.518;2022-10-16T22:41:15;20.10;70.20
21540;DHT22;10931;52.164;5.518;2022-10-16T22:43:51;20.10;70.20
21540;DHT22;10931;52.164;5.518;2022-10-16T22:46:21;20.10;70.20
21540;DHT22;10931;52.164;5.518;2022-10-16T22:49:14;20.10;70.10
21540;DHT22;10931;52.164;5.518;2022-10-16T22:52:23;20.10;70.10
21540;DHT22;10931;52.164;5.518;2022-10-16T22:54:59;20.10;70.10
21540;DHT22;10931;52.164;5.518;2022-10-16T23:00:25;20.10;70.20
21540;DHT22;10931;52.164;5.518;2022-10-16T23:02:54;20.10;70.20
21540;DHT22;10931;52.164;5.518;2022-10-16T23:05:20;20.10;70.10
21540;DHT22;10931;52.164;5.518;2022-10-16T23:07:59;20.10;70.10
21540;DHT22;10931;52.164;5.518;2022-10-16T23:10:29;20.10;70.20
21540;DHT22;10931;52.164;5.518;2022-10-16T23:12:54;20.10;70.10
21540;DHT22;10931;52.164;5.518;2022-10-16T23:15:20;20.10;70.10
21540;DHT22;10931;52.164;5.518;2022-10-16T23:17:46;20.10;70.10
21540;DHT22;10931;52.164;5.518;2022-10-16T23:20:14;20.10;70.20
21540;DHT22;10931;52.164;5.518;2022-10-16T23:22:39;20.10;70.20
21540;DHT22;10931;52.164;5.518;2022-10-16T23:25:05;20.10;70.20
21540;DHT22;10931;52.164;5.518;2022-10-16T23:27:34;20.10;70.10
21540;DHT22;10931;52.164;5.518;2022-10-16T23:30:11;20.10;70.10
21540;DHT22;10931;52.164;5.518;2022-10-16T23:32:46;20.10;70.20
21540;DHT22;10931;52.164;5.518;2022-10-16T23:35:17;20.10;70.10
21540;DHT22;10931;52.164;5.518;2022-10-16T23:37:45;20.10;70.10
21540;DHT22;10931;52.164;5.518;2022-10-16T23:40:16;20.10;70.20
21540;DHT22;10931;52.164;5.518;2022-10-16T23:42:56;20.10;70.10
21540;DHT22;10931;52.164;5.518;2022-10-16T23:45:48;20.10;70.10
21540;DHT22;10931;52.164;5.518;2022-10-16T23:48:16;20.10;70.20
21540;DHT22;10931;52.164;5.518;2022-10-16T23:51:01;20.00;70.10
21540;DHT22;10931;52.164;5.518;2022-10-16T23:53:32;20.10;70.10
21540;DHT22;10931;52.164;5.518;2022-10-16T23:56:16;20.00;70.10
21540;DHT22;10931;52.164;5.518;2022-10-16T23:58:41;20.00;70.10
